Tucson, AZ

1:41 PM MST on September 23, 2014 (GMT -0700)
Sun City Oro Valley | Change Station
CLOSE
Current Station
Personal Weather Station
Location: Oro Valley, AZ
Elevation: 3041 ft
Nearby Weather Stations

Elev 3041 ft 32.47 °N, 110.95 °W | Updated 151 days ago

Clear
Clear
93 °F
Feels Like 93 °F
N
6
Wind Variable Wind from NE
Gusts 9 mph

Today
High -- | Low -- °F
--% Chance of Precip.
Yesterday
High -- | Low -- °F
Precip. -- in
6:12 AM 6:19 PM
Waning Crescent, 0% visible
Pressure 29.87 in
Visibility 10.0 miles
Clouds Clear
Dew Point 59 °F
Humidity 30%
Rainfall -999.00 in
Snow Depth 0 in
UV 9 out of 12
Pollen 7.60 out of 12
Air Quality Not available.
Flu Activity Not available.
METAR KDMA 231958Z AUTO 02005KT 10SM CLR 33/16 A3000 RMK AO2 SLP113 T03340162 $

More Conditions Fewer Conditions

Pressure 29.87 in
Visibility 10.0 miles
Clouds Clear
Dew Point 59 °F
Humidity 30%
Rainfall -999.00 in
Snow Depth 0 in
UV 9 out of 12
Pollen 7.60 out of 12
Air Quality Not available.
Flu Activity Not available.
METAR KDMA 231958Z AUTO 02005KT 10SM CLR 33/16 A3000 RMK AO2 SLP113 T03340162 $

More Conditions Fewer Conditions

10-Day Weather Forecast

Almanac

Astronomy

Sep. 23, 2014 Rise Set
Actual Time 6:12 AM MST 6:19 PM MST
Civil Twilight 5:48 AM MST 6:43 PM MST
Nautical Twilight 5:19 AM MST 7:12 PM MST
Astronomical Twilight 4:50 AM MST 7:40 PM MST
Moon 5:40 AM MST 6:00 PM MST
Length of Visible Light 12h 55m
Length of Day
12h 06m
Tomorrow will be 1m 58s shorter.
Waning Crescent, 0% of the Moon is Illuminated
Today
Waning Crescent
Sep 24
New
Oct 1
First Quarter
Oct 8
Full
Oct 15
Last Quarter

Today's Extremes

State Highs State Lows

Community

WunderPhotos

Upload Photos

1,755,789 photos uploaded!

WunderBlogs® & News

By Dr. Jeff Masters
Director of Meteorology, Weather Underground
By Kari Strenfel
Meteorologist, Weather Underground
By Christopher C. Burt
Weather Historian, Weather Underground
September 23, 2014
September 23, 2014
September 23, 2014

Nearby

Snow Depth

Station Depth Elevation
Workman Creek 0 in 6900 ft

Earthquake Activity

City Distance Mag. Time & Date
No recent earthquake activity has been reported nearby.
Minimum magnitude displayed is 2.5.

Coastal Water Temperatures

Place Temperature
No Stations Reporting

Nearby Weather Stations